Choctaw, Arkansas
Current Conditions -  °F | °C
As of 9:53 PM on Friday 31 Oct 2014 (Local Time) from KRUE Reporting Station
Clear Clear  
Wind Chill: 40°   Ceiling: Unl
Heat Index: 43°   Visibility: 10mi
Dew Point: 24°   Wind: 5mph
Humidity: 47%   Direction: 350°N
Pressure: 30.38"   Gusts: NA
Location:  35.53°N, 92.44°W
Report Text: KRUE 010253Z AUTO 35004KT 10SM CLR 06/M04 A3038 RMK AO2 SLP286 T00611044 51020
Loading
Personal Weather Stations






























Interactive Weather Map New forecast layout! Learn more

10-Day Weather Forecast

Advertisements
Track Severe Weather on mobile